Time;durP1;ratioP1;P1;durP2;ratioP2;P2;SDS_P1;SDS_P2;PMS_P1;PMS_P2;Temp;Humidity;BMP_temperature;BMP_pressure;BME280_temperature;BME280_humidity;BME280_pressure;Samples;Min_cycle;Max_cycle;Signal;HPM_P1;HPM_P2
2022/08/01 00:00:42;;;;;;;13.93;5.55;;;;;;;18.06;80.97;98506.22;4198806;28;20036;-72
2022/08/01 00:02:43;;;;;;;7.40;5.63;;;;;;;18.08;81.21;98509.38;4199393;28;20053;-72
2022/08/01 00:04:43;;;;;;;6.78;5.10;;;;;;;18.10;81.09;98512.53;4198113;28;20055;-73
2022/08/01 00:06:44;;;;;;;7.45;4.70;;;;;;;18.13;81.25;98508.13;4196190;28;20062;-72
2022/08/01 00:08:44;;;;;;;4.72;4.32;;;;;;;18.15;81.35;98505.69;4197181;28;20044;-72
2022/08/01 00:10:45;;;;;;;5.22;4.30;;;;;;;18.16;83.49;98510.84;4199355;28;20043;-73
2022/08/01 00:12:46;;;;;;;5.20;4.18;;;;;;;18.16;84.19;98504.44;4197420;28;20102;-72
2022/08/01 00:14:46;;;;;;;5.65;3.88;;;;;;;18.20;85.34;98503.19;4195952;28;20733;-72
2022/08/01 00:16:46;;;;;;;4.90;4.40;;;;;;;18.21;86.00;98501.97;4197531;28;20072;-72
2022/08/01 00:18:47;;;;;;;4.35;3.95;;;;;;;18.21;86.32;98498.38;4196710;28;20080;-73
2022/08/01 00:20:47;;;;;;;6.63;4.07;;;;;;;18.19;86.11;98501.56;4200769;28;20067;-73
2022/08/01 00:22:48;;;;;;;4.70;3.60;;;;;;;18.21;86.83;98501.16;4196824;28;20144;-73
2022/08/01 00:24:49;;;;;;;4.43;3.80;;;;;;;18.24;88.41;98494.69;4199431;28;20045;-73
2022/08/01 00:26:49;;;;;;;4.80;3.80;;;;;;;18.25;88.56;98487.88;4199904;28;20048;-73
2022/08/01 00:28:50;;;;;;;4.00;3.60;;;;;;;18.25;87.33;98490.69;4199220;28;20067;-73
2022/08/01 00:30:50;;;;;;;5.15;3.80;;;;;;;18.24;89.58;98486.31;4200123;28;20301;-73
2022/08/01 00:32:50;;;;;;;6.22;3.40;;;;;;;18.24;90.53;98497.50;4199495;28;20294;-72
2022/08/01 00:34:51;;;;;;;4.15;3.67;;;;;;;18.21;91.12;98487.16;4199006;28;20063;-73
2022/08/01 00:36:51;;;;;;;3.72;3.42;;;;;;;18.15;91.07;98488.88;4200012;28;20502;-72
2022/08/01 00:38:52;;;;;;;5.30;4.03;;;;;;;18.17;91.76;98481.63;4194141;28;20484;-73
2022/08/01 00:40:52;;;;;;;5.93;4.40;;;;;;;18.23;90.96;98485.50;4192781;28;20105;-72
2022/08/01 00:42:52;;;;;;;4.00;3.60;;;;;;;18.18;91.61;98480.41;4194932;28;22362;-73
2022/08/01 00:44:53;;;;;;;4.55;3.53;;;;;;;18.19;91.22;98481.19;4194730;28;20455;-73
2022/08/01 00:46:53;;;;;;;6.63;3.47;;;;;;;18.17;91.76;98484.41;4195583;28;20059;-73
2022/08/01 00:48:54;;;;;;;4.10;3.50;;;;;;;18.13;92.11;98477.31;4198563;28;20566;-73
2022/08/01 00:50:55;;;;;;;3.95;3.55;;;;;;;18.15;91.54;98478.47;4200604;28;20094;-73
2022/08/01 00:52:57;;;;;;;5.60;3.60;;;;;;;18.14;91.30;98470.50;4197878;28;20048;-73
2022/08/01 00:54:57;;;;;;;5.00;3.53;;;;;;;18.17;90.46;98464.03;4197823;28;20135;-73
2022/08/01 00:56:58;;;;;;;4.10;3.70;;;;;;;18.21;90.47;98479.56;4198104;28;20090;-73
2022/08/01 00:58:59;;;;;;;5.13;3.72;;;;;;;18.25;90.58;98473.88;4194230;28;20044;-73
2022/08/01 01:00:59;;;;;;;4.15;3.40;;;;;;;18.32;90.06;98473.75;4190208;28;20587;-73
2022/08/01 01:03:00;;;;;;;5.72;3.55;;;;;;;18.39;89.71;98468.00;4190059;28;20407;-72
2022/08/01 01:05:00;;;;;;;5.35;3.53;;;;;;;18.45;89.02;98465.47;4194230;28;20404;-73
2022/08/01 01:07:48;;;;;;;4.25;3.50;;;;;;;18.42;89.53;98464.31;4198983;28;20542;-73
2022/08/01 01:10:16;;;;;;;3.40;3.00;;;;;;;18.44;89.62;98467.47;4134454;28;20585;-73
2022/08/01 01:12:37;;;;;;;3.03;2.72;;;;;;;18.44;89.70;98466.69;4132870;28;20074;-73
2022/08/01 01:14:48;;;;;;;5.57;3.53;;;;;;;18.49;89.93;98466.19;4159276;28;20052;-72
2022/08/01 01:16:49;;;;;;;3.10;2.78;;;;;;;18.50;89.84;98460.16;4201974;28;20473;-73
2022/08/01 01:18:54;;;;;;;3.78;2.65;;;;;;;18.52;89.79;98460.50;4202008;28;20051;-73
2022/08/01 01:21:08;;;;;;;3.05;2.70;;;;;;;18.48;90.33;98457.00;4202954;28;20388;-73
2022/08/01 01:23:45;;;;;;;4.20;2.42;;;;;;;18.50;90.59;98457.34;4203268;28;20044;-73
2022/08/01 01:26:11;;;;;;;2.67;2.20;;;;;;;18.51;89.99;98452.53;4202310;28;20433;-73
2022/08/01 01:28:14;;;;;;;2.20;2.00;;;;;;;18.50;90.26;98456.56;4204555;28;20036;-73
2022/08/01 01:30:15;;;;;;;3.03;1.95;;;;;;;18.53;90.78;98459.31;4204624;28;20050;-73
2022/08/01 01:32:26;;;;;;;3.53;2.30;;;;;;;18.55;90.87;98458.88;4202508;28;20039;-73
2022/08/01 01:34:28;;;;;;;2.85;1.98;;;;;;;18.57;90.61;98459.22;4203283;28;20077;-73
2022/08/01 01:36:30;;;;;;;7.10;2.20;;;;;;;18.54;90.86;98462.91;4202508;28;20362;-73
2022/08/01 01:38:41;;;;;;;2.30;2.10;;;;;;;18.48;91.05;98462.59;4203858;28;20048;-73
2022/08/01 01:40:45;;;;;;;2.50;2.08;;;;;;;18.48;90.98;98471.00;4203787;28;20487;-73
2022/08/01 01:42:46;;;;;;;2.55;2.08;;;;;;;18.46;91.46;98459.47;4204143;28;20158;-73
2022/08/01 01:44:49;;;;;;;3.30;1.90;;;;;;;18.49;91.25;98455.78;4201843;28;20503;-73
2022/08/01 01:46:51;;;;;;;2.10;1.90;;;;;;;18.47;91.11;98454.66;4203637;28;20278;-73
2022/08/01 01:48:53;;;;;;;2.83;2.38;;;;;;;18.47;91.00;98457.44;4204025;28;20702;-73
2022/08/01 01:50:56;;;;;;;3.03;2.10;;;;;;;18.45;91.47;98452.28;4202349;28;20610;-73
2022/08/01 01:52:59;;;;;;;2.25;2.00;;;;;;;18.46;91.54;98458.66;4202533;28;20101;-73
2022/08/01 01:55:02;;;;;;;2.45;2.08;;;;;;;18.46;91.18;98441.84;4202347;28;20052;-73
2022/08/01 01:57:04;;;;;;;2.67;2.30;;;;;;;18.42;91.86;98450.31;4203118;28;20521;-73
2022/08/01 01:59:04;;;;;;;;;;;;;;;18.44;91.78;98444.28;4204690;28;20055;-73
2022/08/01 02:01:07;;;;;;;3.10;2.42;;;;;;;18.41;91.99;98440.34;4203611;28;19928;-73
2022/08/01 02:03:10;;;;;;;3.38;2.50;;;;;;;18.42;91.98;98453.13;4202701;28;20063;-73
2022/08/01 02:05:12;;;;;;;2.88;2.50;;;;;;;18.43;92.07;98451.91;4203665;28;20083;-73
2022/08/01 02:07:16;;;;;;;;;;;;;;;18.45;92.19;98451.47;4203035;28;20147;-73
2022/08/01 02:09:18;;;;;;;2.40;2.20;;;;;;;18.39;92.15;98440.00;4202966;28;20363;-73
2022/08/01 02:11:23;;;;;;;2.33;2.08;;;;;;;18.39;92.49;98437.19;4202912;28;20487;-73
2022/08/01 02:13:25;;;;;;;3.83;2.35;;;;;;;18.35;92.74;98442.06;4202569;28;20048;-73
2022/08/01 02:15:27;;;;;;;2.90;2.22;;;;;;;18.28;93.30;98436.59;4202964;28;20075;-73
2022/08/01 02:17:29;;;;;;;2.63;2.28;;;;;;;18.31;93.23;98444.16;4200674;28;20838;-73
2022/08/01 02:19:30;;;;;;;2.45;2.20;;;;;;;18.36;93.18;98445.66;4200434;28;20366;-73
2022/08/01 02:22:01;;;;;;;2.88;2.42;;;;;;;18.33;93.02;98438.91;4201071;28;20318;-73
2022/08/01 02:24:36;;;;;;;3.10;2.35;;;;;;;18.33;93.03;98446.53;4201587;28;20060;-73
2022/08/01 02:26:41;;;;;;;2.80;2.60;;;;;;;18.28;93.32;98442.19;4201608;28;20059;-73
2022/08/01 02:28:47;;;;;;;3.95;2.40;;;;;;;18.24;93.37;98447.88;4202402;28;20083;-73
2022/08/01 02:30:49;;;;;;;2.58;2.38;;;;;;;18.25;93.85;98454.28;4202193;28;20086;-73
2022/08/01 02:32:57;;;;;;;3.28;2.38;;;;;;;18.21;93.67;98453.56;4201828;28;20040;-73
2022/08/01 02:35:01;;;;;;;3.40;2.65;;;;;;;18.23;93.90;98451.91;4201270;28;20402;-73
2022/08/01 02:37:03;;;;;;;3.22;2.92;;;;;;;18.23;93.30;98453.91;4203174;28;20055;-73
2022/08/01 02:39:08;;;;;;;3.15;2.60;;;;;;;18.28;93.70;98461.81;4201093;28;20044;-73
2022/08/01 02:41:13;;;;;;;3.20;2.90;;;;;;;18.25;93.79;98457.84;4199306;28;20407;-72
2022/08/01 02:43:18;;;;;;;5.10;3.20;;;;;;;18.31;93.66;98458.16;4202219;28;20113;-73
2022/08/01 02:45:22;;;;;;;3.03;2.72;;;;;;;18.29;93.71;98457.81;4200681;28;20521;-73
2022/08/01 02:47:25;;;;;;;3.75;3.10;;;;;;;18.24;93.97;98458.28;4201238;28;20361;-73
2022/08/01 02:49:27;;;;;;;4.35;2.97;;;;;;;18.20;94.48;98463.97;4199217;28;20052;-72
2022/08/01 02:51:30;;;;;;;5.35;3.70;;;;;;;18.18;94.49;98451.59;4199795;28;20048;-73
2022/08/01 02:53:36;;;;;;;5.55;3.28;;;;;;;18.14;95.22;98456.50;4201328;28;20040;-73
2022/08/01 02:55:39;;;;;;;4.25;3.63;;;;;;;18.14;95.17;98445.28;4200539;28;20141;-72
2022/08/01 02:57:41;;;;;;;4.47;3.88;;;;;;;18.13;94.99;98444.50;4199610;28;20044;-73
2022/08/01 02:59:44;;;;;;;5.05;4.03;;;;;;;18.16;95.34;98452.03;4200989;28;20151;-73
2022/08/01 03:01:46;;;;;;;4.07;3.63;;;;;;;18.15;95.14;98453.25;4201217;28;20127;-73
2022/08/01 03:03:47;;;;;;;5.45;3.72;;;;;;;18.08;95.88;98458.22;4201827;28;20083;-73
2022/08/01 03:05:48;;;;;;;5.55;3.97;;;;;;;18.07;96.09;98456.63;4203160;28;20040;-73
2022/08/01 03:07:50;;;;;;;4.32;3.78;;;;;;;18.03;96.55;98456.69;4202005;28;20399;-73
2022/08/01 03:09:52;;;;;;;4.78;3.65;;;;;;;18.02;96.28;98452.31;4202239;28;20038;-73
2022/08/01 03:11:55;;;;;;;5.25;3.60;;;;;;;18.01;96.65;98455.53;4203252;28;20095;-73
2022/08/01 03:13:58;;;;;;;6.35;4.05;;;;;;;18.00;96.62;98454.75;4201977;28;20154;-72
2022/08/01 03:16:01;;;;;;;3.95;3.40;;;;;;;18.03;96.79;98464.28;4201621;28;20114;-73
2022/08/01 03:18:03;;;;;;;4.20;3.80;;;;;;;17.99;96.77;98460.78;4201457;28;20347;-72
2022/08/01 03:20:04;;;;;;;4.13;3.50;;;;;;;17.93;97.50;98454.88;4201248;28;20074;-73
2022/08/01 03:22:12;;;;;;;6.30;3.95;;;;;;;17.98;97.19;98456.41;4200915;28;20471;-73
2022/08/01 03:24:14;;;;;;;5.15;3.78;;;;;;;17.96;97.30;98457.63;4200278;28;20044;-73
2022/08/01 03:26:15;;;;;;;4.70;3.88;;;;;;;17.93;97.62;98464.06;4201188;28;20047;-72
2022/08/01 03:28:16;;;;;;;4.60;3.65;;;;;;;17.92;97.67;98462.47;4201050;28;20198;-72
2022/08/01 03:30:17;;;;;;;3.97;3.58;;;;;;;17.92;97.86;98462.47;4201790;28;20060;-72
2022/08/01 03:32:19;;;;;;;4.40;3.80;;;;;;;17.89;97.88;98462.56;4201611;28;20028;-72
2022/08/01 03:34:22;;;;;;;3.67;3.33;;;;;;;17.98;97.86;98467.59;4202803;28;20074;-73
2022/08/01 03:36:26;;;;;;;3.42;2.92;;;;;;;17.99;97.60;98469.19;4200302;28;20040;-73
2022/08/01 03:38:30;;;;;;;4.13;3.47;;;;;;;17.95;97.49;98470.00;4200947;28;20085;-73
2022/08/01 03:40:35;;;;;;;5.22;3.42;;;;;;;17.94;97.57;98467.66;4201568;28;20044;-73
2022/08/01 03:42:41;;;;;;;3.65;3.33;;;;;;;17.87;98.31;98477.00;4201571;28;20378;-73
2022/08/01 03:44:52;;;;;;;3.78;2.97;;;;;;;17.82;98.70;98471.88;4202967;28;20395;-72
2022/08/01 03:47:09;;;;;;;3.50;3.20;;;;;;;17.83;99.04;98475.47;4200036;28;20044;-72
2022/08/01 03:49:17;;;;;;;4.07;3.30;;;;;;;17.83;99.07;98467.06;4201510;28;20426;-73
2022/08/01 03:51:20;;;;;;;4.13;3.30;;;;;;;17.78;98.95;98470.34;4202957;28;20036;-73
2022/08/01 03:53:24;;;;;;;4.38;3.30;;;;;;;17.78;99.42;98481.53;4142830;28;20514;-73
2022/08/01 03:55:25;;;;;;;4.50;3.13;;;;;;;17.75;99.58;98474.78;4201468;28;20119;-73
2022/08/01 03:57:28;;;;;;;4.18;2.70;;;;;;;17.79;99.23;98481.13;4202124;28;20067;-73
2022/08/01 03:59:30;;;;;;;3.40;3.03;;;;;;;17.73;99.85;98482.81;4201980;28;20055;-73
2022/08/01 04:01:33;;;;;;;3.92;3.30;;;;;;;17.77;99.75;98489.13;4201040;28;20055;-73
2022/08/01 04:03:34;;;;;;;3.30;3.00;;;;;;;17.75;100.00;98488.00;4202007;28;20425;-73
2022/08/01 04:05:35;;;;;;;3.30;2.78;;;;;;;17.73;100.00;98484.84;4202700;28;20059;-73
2022/08/01 04:07:36;;;;;;;3.50;2.90;;;;;;;17.80;99.62;98484.72;4201563;28;20086;-73
2022/08/01 04:09:36;;;;;;;5.03;3.10;;;;;;;17.80;99.87;98496.69;4201455;28;20613;-73
2022/08/01 04:11:36;;;;;;;4.82;3.00;;;;;;;17.84;99.62;98491.81;4202967;28;20051;-72
2022/08/01 04:13:37;;;;;;;4.78;3.28;;;;;;;17.79;99.61;98483.09;4202186;28;20048;-73
2022/08/01 04:15:37;;;;;;;3.63;2.88;;;;;;;17.83;99.60;98486.66;4202450;28;20036;-73
2022/08/01 04:17:37;;;;;;;3.78;3.28;;;;;;;17.82;99.62;98487.88;4201861;28;20480;-73
2022/08/01 04:19:38;;;;;;;3.00;2.70;;;;;;;17.84;99.44;98494.63;4202089;28;20064;-73
2022/08/01 04:21:39;;;;;;;4.82;2.70;;;;;;;17.85;99.41;98496.19;4202121;28;20139;-73
2022/08/01 04:23:43;;;;;;;3.35;2.70;;;;;;;17.90;99.51;98495.72;4200830;28;20052;-73
2022/08/01 04:25:45;;;;;;;3.47;3.00;;;;;;;17.93;99.70;98494.06;4202389;28;20309;-73
2022/08/01 04:27:48;;;;;;;;;;;;;;;17.96;99.27;98496.81;4202204;28;20087;-73
2022/08/01 04:29:51;;;;;;;3.07;2.60;;;;;;;17.99;99.17;98497.16;4201559;28;19962;-73
2022/08/01 04:31:54;;;;;;;3.50;2.50;;;;;;;18.06;98.80;98495.03;4201415;28;20052;-73
2022/08/01 04:33:56;;;;;;;3.60;2.90;;;;;;;18.11;98.75;98494.53;4200429;28;20040;-73
2022/08/01 04:35:59;;;;;;;3.75;3.10;;;;;;;18.19;98.30;98500.78;4201985;28;21153;-72
2022/08/01 04:38:01;;;;;;;3.50;3.20;;;;;;;18.19;98.45;98495.19;4202853;28;20135;-72
2022/08/01 04:40:02;;;;;;;4.15;2.80;;;;;;;18.21;98.80;98498.38;4202035;28;20131;-73
2022/08/01 04:42:04;;;;;;;3.72;2.67;;;;;;;18.24;98.63;98503.88;4201096;28;20047;-73
2022/08/01 04:44:05;;;;;;;3.90;2.70;;;;;;;18.27;98.38;98513.44;4201143;28;20371;-73
2022/08/01 04:46:07;;;;;;;3.47;3.00;;;;;;;18.21;98.39;98507.56;4198768;28;20040;-73
2022/08/01 04:48:09;;;;;;;3.00;2.60;;;;;;;18.28;98.38;98517.81;4200498;28;20522;-73
2022/08/01 04:50:11;;;;;;;2.58;2.35;;;;;;;18.30;97.93;98512.59;4201388;28;20036;-73
2022/08/01 04:52:11;;;;;;;3.58;3.13;;;;;;;18.30;97.70;98498.59;4201266;28;20463;-73
2022/08/01 04:54:12;;;;;;;6.15;2.88;;;;;;;18.30;97.66;98504.19;4202848;28;20036;-73
2022/08/01 04:56:12;;;;;;;3.42;2.45;;;;;;;18.35;97.54;98509.28;4202300;28;20107;-73
2022/08/01 04:58:15;;;;;;;4.15;2.78;;;;;;;18.40;96.88;98511.59;4200718;28;20035;-73
2022/08/01 05:00:18;;;;;;;4.03;2.80;;;;;;;18.48;96.61;98518.63;4200039;28;20107;-73
2022/08/01 05:02:19;;;;;;;3.95;2.75;;;;;;;18.54;95.96;98510.53;4202029;28;20039;-73
2022/08/01 05:04:19;;;;;;;4.45;2.70;;;;;;;18.75;95.14;98501.69;4199842;28;20032;-73
2022/08/01 05:06:19;;;;;;;2.63;2.42;;;;;;;18.82;94.56;98511.97;4202345;28;20032;-73
2022/08/01 05:08:20;;;;;;;5.13;2.95;;;;;;;18.88;94.30;98507.44;4202150;28;20189;-73
2022/08/01 05:10:20;;;;;;;2.65;2.20;;;;;;;18.95;93.10;98510.09;4201848;28;20318;-73
2022/08/01 05:12:20;;;;;;;4.57;2.75;;;;;;;19.11;92.21;98511.34;4201612;28;20044;-73
2022/08/01 05:14:21;;;;;;;6.57;2.55;;;;;;;19.23;91.72;98505.88;4202059;28;20578;-73
2022/08/01 05:16:21;;;;;;;6.07;2.60;;;;;;;19.32;90.16;98497.63;4203024;28;20052;-73
2022/08/01 05:18:21;;;;;;;3.60;2.70;;;;;;;19.50;90.30;98497.22;4200832;28;20101;-73
2022/08/01 05:20:22;;;;;;;3.08;2.75;;;;;;;19.62;88.71;98509.81;4201726;28;20086;-73
2022/08/01 05:22:22;;;;;;;3.25;2.88;;;;;;;19.66;88.22;98492.88;4202725;28;20059;-73
2022/08/01 05:24:22;;;;;;;3.47;2.30;;;;;;;19.67;87.56;98502.84;4200992;28;20169;-73
2022/08/01 05:26:22;;;;;;;2.72;2.50;;;;;;;19.64;87.13;98496.13;4202561;28;20048;-73
2022/08/01 05:28:23;;;;;;;3.50;2.50;;;;;;;19.57;87.75;98501.91;4200044;28;20047;-73
2022/08/01 05:30:23;;;;;;;2.70;2.13;;;;;;;19.50;87.75;98505.63;4200427;28;20119;-73
2022/08/01 05:32:23;;;;;;;2.67;2.30;;;;;;;19.51;87.65;98512.81;4201857;28;20036;-73
2022/08/01 05:34:24;;;;;;;7.70;3.00;;;;;;;19.42;87.80;98511.84;4202459;28;20040;-73
2022/08/01 05:36:25;;;;;;;7.00;2.60;;;;;;;19.42;88.21;98523.84;4201393;28;20681;-73
2022/08/01 05:38:25;;;;;;;2.90;2.60;;;;;;;19.46;88.22;98521.78;4200982;28;20954;-73
2022/08/01 05:40:25;;;;;;;3.33;2.58;;;;;;;19.32;88.67;98522.88;4202523;28;20093;-73
2022/08/01 05:42:26;;;;;;;3.47;2.80;;;;;;;19.25;89.15;98523.03;4201319;28;20517;-73
2022/08/01 05:44:26;;;;;;;3.08;2.40;;;;;;;19.22;89.30;98531.56;4201431;28;20253;-73
2022/08/01 05:46:27;;;;;;;4.50;2.90;;;;;;;19.19;89.48;98519.16;4202244;28;20385;-73
2022/08/01 05:48:27;;;;;;;3.20;2.50;;;;;;;19.21;89.61;98533.56;4200471;28;20041;-73
2022/08/01 05:50:27;;;;;;;3.42;2.90;;;;;;;19.18;89.51;98531.63;4201310;28;20041;-73
2022/08/01 05:52:28;;;;;;;3.53;2.55;;;;;;;19.21;89.39;98527.97;4201550;28;20108;-73
2022/08/01 05:54:29;;;;;;;4.10;2.70;;;;;;;19.25;88.85;98530.66;4201998;28;20055;-73
2022/08/01 05:56:29;;;;;;;3.58;2.83;;;;;;;19.29;88.38;98525.78;4200936;28;20036;-73
2022/08/01 05:58:29;;;;;;;2.63;2.42;;;;;;;19.21;88.93;98529.97;4201608;28;20465;-73
2022/08/01 06:00:29;;;;;;;3.20;2.90;;;;;;;19.21;89.37;98532.78;4202266;28;20051;-73
2022/08/01 06:02:30;;;;;;;3.40;2.85;;;;;;;19.13;88.97;98531.34;4201067;28;20450;-73
2022/08/01 06:04:30;;;;;;;3.25;2.30;;;;;;;19.19;88.84;98521.19;4203188;28;20071;-73
2022/08/01 06:06:31;;;;;;;2.78;2.50;;;;;;;19.18;88.76;98528.03;4203483;28;20231;-73
2022/08/01 06:08:31;;;;;;;2.97;2.65;;;;;;;19.28;89.00;98532.59;4203509;28;20044;-73
2022/08/01 06:10:32;;;;;;;3.75;2.90;;;;;;;19.31;88.66;98526.91;4204037;28;20139;-73
2022/08/01 06:12:33;;;;;;;3.35;2.47;;;;;;;19.34;88.52;98537.25;4203149;28;20115;-73
2022/08/01 06:14:33;;;;;;;3.47;3.00;;;;;;;19.44;88.04;98535.44;4203984;28;20048;-73
2022/08/01 06:16:34;;;;;;;4.00;2.92;;;;;;;19.50;88.04;98546.94;4202467;28;20109;-73
2022/08/01 06:18:34;;;;;;;3.60;3.05;;;;;;;19.55;87.61;98541.59;4203648;28;20039;-73
2022/08/01 06:20:34;;;;;;;3.90;3.05;;;;;;;19.51;87.45;98545.69;4204758;28;20048;-73
2022/08/01 06:22:34;;;;;;;4.15;2.90;;;;;;;19.50;87.33;98541.31;4204874;28;20082;-73
2022/08/01 06:24:35;;;;;;;3.25;2.92;;;;;;;19.57;86.88;98546.78;4203939;28;20066;-73
2022/08/01 06:26:36;;;;;;;3.63;3.22;;;;;;;19.60;87.34;98543.91;4203144;28;20044;-73
2022/08/01 06:28:38;;;;;;;4.25;3.30;;;;;;;19.55;87.47;98549.22;4203711;28;20119;-73
2022/08/01 06:30:38;;;;;;;3.47;2.80;;;;;;;19.59;86.84;98545.13;4202877;28;20107;-73
2022/08/01 06:32:38;;;;;;;3.97;3.20;;;;;;;19.71;86.48;98560.50;4204427;28;20040;-73
2022/08/01 06:34:39;;;;;;;3.10;2.80;;;;;;;19.81;85.59;98567.09;4204180;28;20074;-73
2022/08/01 06:36:39;;;;;;;3.75;3.33;;;;;;;19.71;85.84;98563.31;4205454;28;20074;-73
2022/08/01 06:38:39;;;;;;;3.85;2.97;;;;;;;19.71;86.07;98560.50;4203514;28;20055;-73
2022/08/01 06:40:40;;;;;;;5.72;3.33;;;;;;;19.74;86.27;98562.41;4203465;28;20048;-73
2022/08/01 06:42:40;;;;;;;4.40;2.80;;;;;;;19.66;86.18;98563.03;4202912;28;20040;-73
2022/08/01 06:44:41;;;;;;;4.03;3.03;;;;;;;19.53;86.10;98555.28;4202627;28;20044;-73
2022/08/01 06:46:41;;;;;;;9.57;3.33;;;;;;;19.54;86.27;98565.28;4203593;28;20052;-73
2022/08/01 06:48:42;;;;;;;3.35;3.05;;;;;;;19.45;86.81;98564.31;4204173;28;20160;-73
2022/08/01 06:50:42;;;;;;;4.70;3.33;;;;;;;19.43;86.73;98580.75;4202726;28;20044;-73
2022/08/01 06:52:43;;;;;;;5.65;3.30;;;;;;;19.47;86.67;98571.03;4204389;28;20096;-73
2022/08/01 06:54:43;;;;;;;4.35;3.42;;;;;;;19.37;87.24;98566.47;4203826;28;20534;-73
2022/08/01 06:56:43;;;;;;;4.28;3.20;;;;;;;19.33;87.46;98574.94;4203140;28;20494;-73
2022/08/01 06:58:44;;;;;;;4.88;3.10;;;;;;;19.31;87.69;98565.41;4202568;28;20573;-73
2022/08/01 07:00:44;;;;;;;4.30;3.90;;;;;;;19.38;87.75;98570.84;4203759;28;20113;-73
2022/08/01 07:02:45;;;;;;;3.95;3.30;;;;;;;19.38;87.90;98570.84;4203085;28;20175;-73
2022/08/01 07:04:45;;;;;;;4.80;2.97;;;;;;;19.46;87.08;98566.66;4203925;28;20036;-73
2022/08/01 07:06:46;;;;;;;4.53;3.38;;;;;;;19.43;87.45;98573.13;4203739;28;20433;-73
2022/08/01 07:08:46;;;;;;;4.18;3.22;;;;;;;19.52;87.61;98576.13;4203283;28;20123;-73
2022/08/01 07:10:46;;;;;;;3.65;3.20;;;;;;;19.50;87.60;98578.59;4203101;28;20566;-73
2022/08/01 07:12:47;;;;;;;7.80;3.55;;;;;;;19.52;87.94;98575.34;4203575;28;20044;-73
2022/08/01 07:14:47;;;;;;;4.70;3.30;;;;;;;19.45;89.71;98576.31;4202665;28;20404;-73
2022/08/01 07:16:48;;;;;;;4.18;3.60;;;;;;;19.36;90.93;98574.09;4203133;28;20376;-73
2022/08/01 07:18:48;;;;;;;4.40;3.30;;;;;;;19.38;91.38;98570.84;4202581;28;20051;-73
2022/08/01 07:20:49;;;;;;;3.47;3.05;;;;;;;19.49;91.24;98579.81;4202798;28;20043;-73
2022/08/01 07:22:49;;;;;;;3.47;3.17;;;;;;;19.47;91.96;98575.88;4203251;28;20490;-73
2022/08/01 07:24:50;;;;;;;4.25;3.30;;;;;;;19.58;91.84;98582.06;4203475;28;20592;-73
2022/08/01 07:26:50;;;;;;;3.75;3.35;;;;;;;19.79;90.55;98575.16;4202352;28;20048;-73
2022/08/01 07:28:50;;;;;;;3.60;3.20;;;;;;;20.02;90.40;98576.97;4202740;28;20052;-73
2022/08/01 07:30:51;;;;;;;4.90;3.20;;;;;;;20.11;89.63;98583.59;4203649;28;20135;-73
2022/08/01 07:32:51;;;;;;;3.92;2.90;;;;;;;20.04;89.07;98580.94;4203291;28;20192;-73
2022/08/01 07:34:51;;;;;;;5.30;2.58;;;;;;;19.80;87.85;98585.94;4203893;28;20052;-73
2022/08/01 07:36:52;;;;;;;3.03;2.65;;;;;;;19.76;89.49;98590.03;4203347;28;20433;-73
2022/08/01 07:38:52;;;;;;;2.47;2.20;;;;;;;19.71;90.16;98591.38;4201670;28;20044;-73
2022/08/01 07:40:54;;;;;;;2.60;2.10;;;;;;;19.66;89.44;98586.28;4203720;28;20348;-73
2022/08/01 07:42:55;;;;;;;2.22;2.00;;;;;;;19.60;88.89;98576.78;4203427;28;20036;-73
2022/08/01 07:44:55;;;;;;;2.30;1.70;;;;;;;19.60;88.22;98582.41;4203144;28;20122;-73
2022/08/01 07:46:55;;;;;;;1.60;1.50;;;;;;;19.49;89.18;98587.44;4202737;28;20051;-73
2022/08/01 07:48:56;;;;;;;4.65;1.77;;;;;;;19.44;89.31;98588.72;4203368;28;20578;-73
2022/08/01 07:50:57;;;;;;;4.18;1.73;;;;;;;19.52;89.17;98597.78;4203043;28;20114;-73
2022/08/01 07:52:57;;;;;;;2.60;1.90;;;;;;;19.57;89.12;98586.88;4202109;28;20047;-73
2022/08/01 07:54:58;;;;;;;2.10;1.63;;;;;;;19.68;87.64;98589.41;4201269;28;20206;-73
2022/08/01 07:56:58;;;;;;;2.95;1.90;;;;;;;19.87;88.02;98599.03;4201621;28;20048;-73
2022/08/01 07:58:59;;;;;;;1.80;1.65;;;;;;;20.00;87.63;98608.31;4202511;28;20778;-73
2022/08/01 08:00:59;;;;;;;2.67;1.70;;;;;;;19.90;85.38;98604.53;4200919;28;20400;-73
2022/08/01 08:02:59;;;;;;;2.28;1.90;;;;;;;19.95;84.75;98599.66;4202712;28;20109;-73
2022/08/01 08:05:00;;;;;;;2.72;1.58;;;;;;;20.07;84.87;98605.34;4202762;28;20055;-73
2022/08/01 08:07:00;;;;;;;3.03;1.75;;;;;;;20.05;84.30;98596.56;4202954;28;20033;-73
2022/08/01 08:09:00;;;;;;;3.20;1.80;;;;;;;20.01;84.68;98601.47;4201460;28;20058;-73
2022/08/01 08:11:01;;;;;;;2.63;1.88;;;;;;;20.04;84.19;98609.03;4201602;28;20043;-73
2022/08/01 08:13:02;;;;;;;5.00;1.80;;;;;;;20.05;83.44;98605.00;4202973;28;20089;-73
2022/08/01 08:15:05;;;;;;;1.83;1.65;;;;;;;20.08;84.32;98598.50;4202033;28;20118;-73
2022/08/01 08:17:06;;;;;;;2.55;1.80;;;;;;;20.24;83.11;98594.09;4202192;28;20355;-73
2022/08/01 08:19:06;;;;;;;1.70;1.60;;;;;;;20.43;83.58;98601.63;4201990;28;20071;-73
2022/08/01 08:21:06;;;;;;;3.15;1.85;;;;;;;20.58;82.04;98597.22;4202949;28;20478;-73
2022/08/01 08:24:19;;;;;;;1.90;1.63;;;;;;;20.63;80.06;98593.09;4202423;28;20135;-73
2022/08/01 08:25:28;;;;;;;2.05;1.60;;;;;;;20.54;78.28;98599.34;4200826;28;20119;-73
2022/08/01 08:27:29;;;;;;;0.98;0.95;;;;;;;20.65;77.28;98594.22;4201898;28;20361;-73
2022/08/01 08:29:34;;;;;;;1.20;1.00;;;;;;;20.66;75.99;98595.00;4201573;28;20044;-73
2022/08/01 08:31:34;;;;;;;1.25;1.15;;;;;;;20.56;74.73;98596.09;4202592;28;20123;-73
2022/08/01 08:33:35;;;;;;;4.65;1.58;;;;;;;20.46;75.84;98606.41;4202234;28;20608;-73
2022/08/01 08:35:35;;;;;;;1.73;1.10;;;;;;;20.58;76.67;98605.66;4201822;28;20040;-73
2022/08/01 08:37:37;;;;;;;1.77;1.33;;;;;;;20.65;77.33;98602.66;4200597;28;20410;-73
2022/08/01 08:39:37;;;;;;;2.72;1.77;;;;;;;20.73;77.59;98597.63;4201631;28;20451;-73
2022/08/01 08:41:38;;;;;;;1.98;1.10;;;;;;;20.85;77.63;98593.28;4202702;28;20116;-73
2022/08/01 08:43:38;;;;;;;1.67;1.30;;;;;;;20.98;78.08;98602.56;4201920;28;20468;-73
2022/08/01 08:45:39;;;;;;;3.83;1.35;;;;;;;21.10;76.20;98612.25;4202888;28;20054;-73
2022/08/01 08:47:42;;;;;;;1.67;1.23;;;;;;;21.23;74.84;98607.47;4202500;28;20044;-73
2022/08/01 08:49:43;;;;;;;;;;;;;;;21.28;74.83;98618.22;4202672;28;20036;-73
2022/08/01 08:51:46;;;;;;;2.22;1.13;;;;;;;21.35;75.02;98614.38;4200793;28;20341;-73
2022/08/01 08:53:48;;;;;;;2.55;1.30;;;;;;;21.40;74.66;98620.25;4202733;28;20059;-73
2022/08/01 08:55:49;;;;;;;1.42;1.30;;;;;;;21.50;73.51;98618.34;4201509;28;20047;-73
2022/08/01 08:57:50;;;;;;;3.08;1.60;;;;;;;21.56;72.83;98613.75;4200765;28;20158;-73
2022/08/01 08:59:52;;;;;;;1.27;1.08;;;;;;;21.26;73.10;98624.22;4201692;28;20040;-73
2022/08/01 09:01:52;;;;;;;2.70;1.33;;;;;;;21.40;73.28;98617.44;4201745;28;20043;-73
2022/08/01 09:03:53;;;;;;;1.30;1.20;;;;;;;21.48;72.55;98615.19;4201041;28;20032;-73
2022/08/01 09:05:53;;;;;;;1.50;1.40;;;;;;;21.52;71.49;98619.50;4201293;28;20032;-73
2022/08/01 09:07:53;;;;;;;2.55;1.30;;;;;;;21.42;71.96;98631.84;4202634;28;20228;-73
2022/08/01 09:09:54;;;;;;;1.48;1.05;;;;;;;21.52;71.69;98629.97;4199863;28;20050;-73
2022/08/01 09:11:54;;;;;;;4.20;1.27;;;;;;;21.47;71.84;98628.47;4201341;28;20128;-73
2022/08/01 09:14:23;;;;;;;1.77;1.27;;;;;;;21.47;72.21;98645.38;4202490;28;20116;-73
2022/08/01 09:16:24;;;;;;;2.00;1.27;;;;;;;21.50;71.57;98636.03;4201818;28;20048;-73
2022/08/01 09:18:34;;;;;;;1.48;1.10;;;;;;;21.49;69.94;98642.09;4200939;28;20059;-73
2022/08/01 09:20:35;;;;;;;1.80;1.00;;;;;;;21.43;71.57;98639.06;4201267;28;20239;-73
2022/08/01 09:22:37;;;;;;;1.73;1.08;;;;;;;21.45;71.19;98638.63;4200832;28;20045;-73
2022/08/01 09:24:39;;;;;;;2.28;1.00;;;;;;;21.31;71.22;98643.41;4202066;28;20041;-73
2022/08/01 09:26:40;;;;;;;1.88;1.20;;;;;;;21.17;70.84;98638.16;4200225;28;20046;-73
2022/08/01 09:28:42;;;;;;;1.77;0.90;;;;;;;21.14;71.10;98638.28;4201548;28;20135;-73
2022/08/01 09:30:42;;;;;;;1.08;0.90;;;;;;;21.04;71.06;98638.13;4201667;28;20117;-73
2022/08/01 09:33:00;;;;;;;2.22;0.80;;;;;;;20.87;72.60;98639.44;4201468;28;20541;-73
2022/08/01 09:35:23;;;;;;;3.70;1.17;;;;;;;21.00;72.44;98643.06;4201379;28;20439;-73
2022/08/01 09:37:30;;;;;;;1.15;1.00;;;;;;;21.04;71.57;98640.97;4202682;28;20141;-73